Shu'aiba Airport

IQ-0047 · Basra, 伊拉克

罗盘
风向 的 风向 320° Shu'aiba Airport 13/31
风: 10 kt, 3 beaufort

10 kt

1 kt
改变
0 ft 1.000 2.000 3.000 4.000 5.000
CAVOK
METAR ORMM 191600Z 32010KT CAVOK 44/10 Q0997 NOSIG

METAR Shu'aiba Airport - IQ-0047

Shu'aiba Airport是,伊拉克中的小机场。 该机场位于纬度30,42750和经度47,64168。 该机场有一条跑道: 13/31. 这个机场没有ICAO代码,我们使用IQ-0047作为参考。 机场在Baghdad FIR中。

该航空气象观测是针对Basra International Airport在2024年6月19日 19:00, 当地时间进行的。

机场观察

风向为320°,速度为10 kt。

天气为CAVOK。这意味着在5.000 ft或MSA(最低安全高度)以下(以较高者为准)以下没有云。这也意味着没有观测到积雨云或高耸的积云,可见度为10 km 或者更多或更高。此外,不会有雾,降雨或其他重要天气。

温度和风寒是44 °C。 露点为10 °C,相对湿度为13%。 海平面上的气压为997 hPa (QNH)。

白天

今天,太阳从04:47升起,在18:54降落。 这适用于Shu'aiba Airport,世界夏令时可能有所不同。 当地时间与世界标准时间之间的时差为+3 小时。 夏令时目前正在进行中。

公司介绍

我们没有关于这个机场的公司信息。

体会

到Vliegles.nl去找飞行课程,跳伞和其他飞行体验。 浏览页面,了解Shu'aiba Airport附近所有可用的活动。 你也可以使用搜索功能来寻找你所在地附近的特定飞行课程、跳伞或其他飞行体验。

跑道

Id 标题 侧风 逆风 侧风 %
13/31 137°-317° 10 kt 5 %

逆风成分最大的方向会被突出显示,并用于横风计算。 这并不一定意味着这个方向在使用。

温度 & 天气

温度 44 °C
露点 10 °C
相对湿度 13%
Kp-index 1 (0-9)

白天

日出
04:47 (9:37)
中午
11:50
日落
18:54

小工具

你想在你的网站上有一个关于Shu'aiba Airport的当前航空天气(METAR)的小部件吗?

显示HTML代码
报告变更